Time;durP1;ratioP1;P1;durP2;ratioP2;P2;SDS_P1;SDS_P2;PMS_P1;PMS_P2;Temp;Humidity;BMP_temperature;BMP_pressure;BME280_temperature;BME280_humidity;BME280_pressure;Samples;Min_cycle;Max_cycle;Signal;HPM_P1;HPM_P2
2022/08/24 00:00:13;;;;;;;16.50;9.63;;;;;;;22.44;100.00;99745.28;5032809;28;20203;-66
2022/08/24 00:02:40;;;;;;;16.02;9.50;;;;;;;22.51;100.00;99761.81;5032740;28;20209;-66
2022/08/24 00:05:08;;;;;;;14.07;10.68;;;;;;;22.52;100.00;99752.94;5033156;28;20203;-66
2022/08/24 00:07:36;;;;;;;19.25;11.85;;;;;;;22.74;100.00;99798.78;5032433;28;20240;-66
2022/08/24 00:10:07;;;;;;;18.02;12.00;;;;;;;22.81;100.00;99812.63;5032701;28;20713;-66
2022/08/24 00:12:34;;;;;;;14.73;10.57;;;;;;;22.16;100.00;99806.25;5032932;28;20215;-66
2022/08/24 00:15:01;;;;;;;15.95;11.60;;;;;;;22.03;100.00;99781.22;5032843;28;20192;-66
2022/08/24 00:17:28;;;;;;;14.27;11.10;;;;;;;22.17;100.00;99783.34;5032119;28;20204;-66
2022/08/24 00:19:55;;;;;;;14.32;12.10;;;;;;;22.32;100.00;99808.31;5032628;28;20212;-66
2022/08/24 00:22:21;;;;;;;15.50;11.52;;;;;;;22.37;100.00;99809.00;5032272;28;20255;-66
2022/08/24 00:24:48;;;;;;;15.65;10.13;;;;;;;22.23;100.00;99794.53;5032730;28;20200;-66
2022/08/24 00:27:16;;;;;;;15.43;9.52;;;;;;;22.11;100.00;99792.34;5032839;28;20227;-65
2022/08/24 00:29:44;;;;;;;13.95;10.07;;;;;;;22.21;100.00;99777.88;5032756;28;20212;-66
2022/08/24 00:32:11;;;;;;;13.27;9.27;;;;;;;22.26;100.00;99788.25;5032512;28;20208;-66
2022/08/24 00:34:38;;;;;;;14.27;9.55;;;;;;;22.27;100.00;99792.63;5015888;28;20212;-66
2022/08/24 00:37:05;;;;;;;14.23;9.70;;;;;;;22.15;100.00;99764.88;5032338;28;20203;-66
2022/08/24 00:39:32;;;;;;;13.43;8.90;;;;;;;22.14;100.00;99768.47;5032119;28;20196;-65
2022/08/24 00:41:59;;;;;;;12.77;8.50;;;;;;;22.30;100.00;99779.31;5031895;28;20192;-66
2022/08/24 00:44:27;;;;;;;11.23;9.52;;;;;;;22.42;100.00;99783.28;5032019;28;20210;-66
2022/08/24 00:46:58;;;;;;;9.65;7.25;;;;;;;22.53;100.00;99800.44;5031476;28;20224;-66
2022/08/24 00:49:30;;;;;;;10.02;7.43;;;;;;;22.46;100.00;99791.03;5031631;28;20196;-66
2022/08/24 00:52:05;;;;;;;9.02;6.10;;;;;;;22.31;100.00;99798.66;4997552;28;20200;-66
2022/08/24 00:54:36;;;;;;;6.03;5.43;;;;;;;22.39;100.00;99817.75;5017509;28;20207;-65
2022/08/24 00:57:09;;;;;;;8.57;5.90;;;;;;;22.41;100.00;99823.81;5031988;28;20203;-66
2022/08/24 00:59:41;;;;;;;6.03;5.43;;;;;;;22.50;100.00;99812.91;5031926;28;20210;-66
2022/08/24 01:02:12;;;;;;;5.28;4.78;;;;;;;22.43;100.00;99816.72;5031841;28;20199;-65
2022/08/24 01:04:45;;;;;;;8.32;5.32;;;;;;;22.32;100.00;99803.03;5031159;28;20193;-66
2022/08/24 01:07:12;;;;;;;8.52;4.78;;;;;;;22.41;100.00;99823.81;5025892;28;20298;-66
2022/08/24 01:09:39;;;;;;;7.55;5.10;;;;;;;22.56;100.00;99833.81;4996952;28;20227;-66
2022/08/24 01:12:06;;;;;;;5.43;4.93;;;;;;;22.59;100.00;99831.06;5031233;28;20298;-65
2022/08/24 01:14:33;;;;;;;5.57;4.88;;;;;;;22.61;100.00;99829.22;5013323;28;20208;-66
2022/08/24 01:19:50;;;;;;;3.40;3.03;;;;;;;22.75;100.00;99839.31;5031503;28;20330;-66
2022/08/24 01:22:32;;;;;;;3.65;3.13;;;;;;;22.76;100.00;99833.94;5031436;28;20602;-66
2022/08/24 01:25:01;;;;;;;4.55;3.53;;;;;;;22.81;100.00;99845.22;5031136;28;20211;-66
2022/08/24 01:27:29;;;;;;;3.38;3.17;;;;;;;22.77;100.00;99838.31;5031206;28;20691;-66
2022/08/24 01:29:57;;;;;;;3.60;3.30;;;;;;;22.83;100.00;99842.53;5012307;28;20200;-66
2022/08/24 01:32:26;;;;;;;4.95;3.58;;;;;;;22.88;100.00;99848.47;5031477;28;20192;-66
2022/08/24 01:34:53;;;;;;;5.03;2.97;;;;;;;22.91;100.00;99841.28;5031208;28;20681;-66
2022/08/24 01:37:21;;;;;;;4.40;3.63;;;;;;;22.95;100.00;99837.59;5031039;28;20207;-66
2022/08/24 01:39:49;;;;;;;7.80;3.90;;;;;;;22.96;100.00;99822.59;5031333;28;20665;-66
2022/08/24 01:42:18;;;;;;;4.13;3.65;;;;;;;23.03;100.00;99824.94;5012418;28;20196;-66
2022/08/24 01:44:46;;;;;;;4.20;3.80;;;;;;;23.05;100.00;99833.66;5030989;28;20682;-66
2022/08/24 01:47:15;;;;;;;4.97;4.25;;;;;;;23.00;100.00;99829.50;5030621;28;20227;-67
2022/08/24 01:49:44;;;;;;;6.50;4.25;;;;;;;22.97;100.00;99824.34;5030881;28;20201;-66
2022/08/24 01:52:13;;;;;;;3.95;3.60;;;;;;;23.07;100.00;99842.44;5030782;28;20204;-66
2022/08/24 01:54:40;;;;;;;4.30;3.20;;;;;;;22.88;100.00;99830.84;5031106;28;20196;-66
2022/08/24 01:57:08;;;;;;;3.85;3.55;;;;;;;23.07;100.00;99854.78;5031056;28;20204;-66
2022/08/24 01:59:37;;;;;;;4.95;3.55;;;;;;;23.10;100.00;99860.81;5031085;28;20204;-65
2022/08/24 02:02:08;;;;;;;4.10;3.75;;;;;;;23.12;100.00;99866.88;5030588;28;20200;-65
2022/08/24 02:04:35;;;;;;;5.90;4.15;;;;;;;23.16;100.00;99871.13;5030753;28;20195;-66
2022/08/24 02:07:02;;;;;;;4.10;3.80;;;;;;;23.10;100.00;99863.47;5030297;28;20307;-66
2022/08/24 02:09:29;;;;;;;5.13;4.47;;;;;;;23.12;100.00;99869.53;5031056;28;20200;-66
2022/08/24 02:11:56;;;;;;;4.28;3.90;;;;;;;23.17;100.00;99864.94;5030658;28;20211;-65
2022/08/24 02:14:23;;;;;;;4.35;3.97;;;;;;;23.26;100.00;99866.34;5030449;28;20204;-66
2022/08/24 02:16:51;;;;;;;6.45;4.30;;;;;;;23.10;100.00;99834.34;5030176;28;20207;-66
2022/08/24 02:19:18;;;;;;;4.57;4.18;;;;;;;23.19;100.00;99865.72;5012241;28;20195;-66
2022/08/24 02:21:45;;;;;;;3.95;3.58;;;;;;;23.04;100.00;99858.41;5031396;28;20235;-66
2022/08/24 02:24:12;;;;;;;4.30;3.97;;;;;;;22.87;100.00;99863.47;5030027;28;20659;-66
2022/08/24 02:26:39;;;;;;;5.50;4.45;;;;;;;22.78;100.00;99879.72;5030566;28;20232;-66
2022/08/24 02:29:06;;;;;;;8.07;4.50;;;;;;;22.48;100.00;99833.25;5030177;28;20299;-66
2022/08/24 02:31:34;;;;;;;5.85;4.72;;;;;;;22.62;100.00;99874.09;5030696;28;20240;-66
2022/08/24 02:34:03;;;;;;;8.23;4.63;;;;;;;22.63;100.00;99873.19;5030459;28;20207;-66
2022/08/24 02:36:30;;;;;;;5.32;4.82;;;;;;;22.63;100.00;99875.81;5030722;28;20584;-66
2022/08/24 02:38:57;;;;;;;4.90;4.43;;;;;;;22.76;100.00;99888.63;5030876;28;20210;-66
2022/08/24 02:41:24;;;;;;;7.30;4.78;;;;;;;22.60;100.00;99890.94;5030397;28;20192;-66
2022/08/24 02:43:51;;;;;;;5.80;4.63;;;;;;;22.38;100.00;99890.00;5030477;28;20300;-66
2022/08/24 02:46:19;;;;;;;6.38;4.85;;;;;;;22.29;100.00;99895.63;5030587;28;20199;-66
2022/08/24 02:48:45;;;;;;;9.57;4.65;;;;;;;22.28;100.00;99907.09;5030354;28;20223;-66
2022/08/24 02:51:21;;;;;;;14.80;5.50;;;;;;;22.21;100.00;99904.69;5030614;28;20613;-66
2022/08/24 02:53:47;;;;;;;6.05;5.20;;;;;;;22.00;100.00;99899.28;5030579;28;20211;-66
2022/08/24 02:56:16;;;;;;;5.65;5.13;;;;;;;21.89;100.00;99873.22;5014861;28;20291;-66
2022/08/24 02:58:43;;;;;;;6.70;5.97;;;;;;;22.04;100.00;99899.13;5034616;28;20196;-65
2022/08/24 03:01:11;;;;;;;7.38;6.57;;;;;;;21.95;100.00;99893.28;5034641;28;20204;-66
2022/08/24 03:03:38;;;;;;;7.32;6.20;;;;;;;21.88;100.00;99882.03;5034491;28;20204;-66
2022/08/24 03:06:05;;;;;;;6.65;6.05;;;;;;;22.06;100.00;99892.00;5034363;28;20210;-66
2022/08/24 03:08:34;;;;;;;6.78;6.05;;;;;;;22.12;100.00;99897.06;5015903;28;20243;-66
2022/08/24 03:11:01;;;;;;;6.13;5.40;;;;;;;22.22;100.00;99911.66;4999986;28;20212;-66
2022/08/24 03:13:29;;;;;;;9.55;6.28;;;;;;;22.45;100.00;99921.41;5034603;28;20207;-66
2022/08/24 03:15:57;;;;;;;7.10;5.88;;;;;;;22.45;100.00;99923.19;5034298;28;20196;-66
2022/08/24 03:18:24;;;;;;;7.80;5.78;;;;;;;22.59;100.00;99907.69;5034049;28;20585;-66
2022/08/24 03:20:51;;;;;;;8.57;5.80;;;;;;;22.62;100.00;99921.66;5034222;28;20227;-66
2022/08/24 03:23:18;;;;;;;8.20;6.35;;;;;;;22.39;100.00;99926.94;5034118;28;20200;-67
2022/08/24 03:25:46;;;;;;;14.15;6.45;;;;;;;22.52;100.00;99911.50;5034344;28;20203;-66
2022/08/24 03:28:13;;;;;;;10.98;7.05;;;;;;;22.49;100.00;99898.38;5033833;28;20704;-66
2022/08/24 03:30:42;;;;;;;8.90;6.28;;;;;;;22.64;100.00;99917.19;5033688;28;20200;-66
2022/08/24 03:33:09;;;;;;;6.85;6.25;;;;;;;22.81;100.00;99928.94;5033662;28;20212;-66
2022/08/24 03:35:36;;;;;;;10.82;6.55;;;;;;;22.88;100.00;99926.03;5033730;28;20203;-66
2022/08/24 03:38:03;;;;;;;6.80;6.25;;;;;;;22.93;100.00;99932.00;5032991;28;20687;-66
2022/08/24 03:40:32;;;;;;;9.23;6.53;;;;;;;22.91;100.00;99933.84;5014871;28;20200;-66
2022/08/24 03:43:01;;;;;;;11.93;6.55;;;;;;;23.04;100.00;99935.13;5033078;28;20204;-66
2022/08/24 03:45:29;;;;;;;8.65;6.30;;;;;;;23.08;100.00;99944.63;5015089;28;20192;-66
2022/08/24 03:47:56;;;;;;;9.00;6.45;;;;;;;23.16;100.00;99924.03;5032503;28;20600;-66
2022/08/24 03:50:24;;;;;;;10.95;6.63;;;;;;;23.20;100.00;99927.44;5032814;28;20196;-66
2022/08/24 03:52:51;;;;;;;17.92;6.82;;;;;;;23.26;100.00;99947.50;5033276;28;20223;-66
2022/08/24 03:55:19;;;;;;;6.35;5.50;;;;;;;23.36;100.00;99946.22;5032511;28;20223;-64
2022/08/24 03:57:46;;;;;;;7.53;5.88;;;;;;;23.43;100.00;99953.03;5033116;28;20208;-66
2022/08/24 04:00:15;;;;;;;8.93;5.88;;;;;;;23.41;100.00;99936.31;5033450;28;20215;-66
2022/08/24 04:02:43;;;;;;;8.45;5.85;;;;;;;23.29;100.00;99921.81;5032880;28;20652;-66
2022/08/24 04:05:11;;;;;;;11.20;6.57;;;;;;;23.56;100.00;99951.63;5020580;28;20723;-66
2022/08/24 04:07:37;;;;;;;15.45;6.35;;;;;;;23.39;100.00;99943.47;5032419;28;20224;-66
2022/08/24 04:10:05;;;;;;;9.93;5.55;;;;;;;23.54;100.00;99949.03;5032617;28;20211;-66
2022/08/24 04:12:32;;;;;;;7.78;4.80;;;;;;;23.51;100.00;99942.97;5011724;28;20200;-66
2022/08/24 04:14:59;;;;;;;9.43;5.43;;;;;;;23.37;100.00;99940.00;5026827;28;20664;-66
2022/08/24 04:17:27;;;;;;;6.10;5.13;;;;;;;23.43;100.00;99960.97;5024464;28;20200;-66
2022/08/24 04:20:00;;;;;;;11.95;4.82;;;;;;;23.16;100.00;99937.28;5023620;28;20598;-66
2022/08/24 04:22:29;;;;;;;7.25;4.82;;;;;;;23.34;100.00;99956.00;5025298;28;20224;-68
2022/08/24 04:24:56;;;;;;;12.13;5.30;;;;;;;23.61;100.00;99947.00;5027397;28;20711;-70
2022/08/24 04:27:23;;;;;;;7.95;4.68;;;;;;;23.71;100.00;99937.78;5031629;28;20232;-70
2022/08/24 04:29:50;;;;;;;7.28;4.53;;;;;;;24.31;100.00;99958.19;5033000;28;20227;-69
2022/08/24 04:32:17;;;;;;;9.20;4.38;;;;;;;24.48;100.00;99960.09;5032218;28;20204;-68
2022/08/24 04:34:46;;;;;;;10.18;4.93;;;;;;;24.93;100.00;99981.13;5014213;28;20192;-68
2022/08/24 04:37:13;;;;;;;8.07;4.40;;;;;;;25.10;100.00;99979.41;5031870;28;20200;-68
2022/08/24 04:39:41;;;;;;;8.88;4.43;;;;;;;25.09;100.00;99990.09;5032551;28;20208;-72
2022/08/24 04:42:08;;;;;;;6.28;4.05;;;;;;;25.23;100.00;99979.69;5032316;28;20206;-69
2022/08/24 04:44:35;;;;;;;6.88;4.40;;;;;;;25.32;100.00;99981.06;5030271;28;20226;-68
2022/08/24 04:47:03;;;;;;;6.38;4.28;;;;;;;24.99;100.00;99991.44;5031909;28;20613;-68
2022/08/24 04:49:30;;;;;;;10.75;4.43;;;;;;;24.94;100.00;99969.56;5030807;28;20199;-68
2022/08/24 04:51:58;;;;;;;7.05;4.57;;;;;;;24.69;100.00;99975.06;5031490;28;20204;-68
2022/08/24 04:54:26;;;;;;;7.35;4.85;;;;;;;24.82;100.00;99981.56;5032000;28;20257;-72
2022/08/24 04:56:53;;;;;;;5.57;3.78;;;;;;;24.66;100.00;99969.91;5032368;28;20662;-68
2022/08/24 04:59:19;;;;;;;8.90;4.88;;;;;;;24.72;100.00;99980.28;5032025;28;20208;-67
2022/08/24 05:01:47;;;;;;;5.75;4.30;;;;;;;24.60;100.00;99988.75;5031191;28;20204;-68
2022/08/24 05:04:14;;;;;;;8.32;4.30;;;;;;;24.53;100.00;99974.91;5030643;28;20254;-68
2022/08/24 05:06:41;;;;;;;10.85;5.13;;;;;;;24.50;100.00;99993.59;5031880;28;20208;-68
2022/08/24 05:09:09;;;;;;;5.93;4.72;;;;;;;24.52;100.00;99991.72;5031873;28;20642;-68
2022/08/24 05:11:39;;;;;;;12.50;4.95;;;;;;;24.36;100.00;99998.63;5031875;28;20211;-68
2022/08/24 05:14:06;;;;;;;4.82;4.43;;;;;;;24.15;100.00;99995.06;5025470;28;20267;-69
2022/08/24 05:16:36;;;;;;;9.43;4.65;;;;;;;23.92;100.00;99987.19;5031469;28;20235;-68
2022/08/24 05:19:05;;;;;;;9.43;5.32;;;;;;;24.11;100.00;99996.09;5031377;28;20281;-67
2022/08/24 05:21:33;;;;;;;9.18;5.10;;;;;;;24.17;100.00;100002.97;5031562;28;20231;-69
2022/08/24 05:23:59;;;;;;;5.60;5.07;;;;;;;24.25;100.00;99994.72;5025654;28;20212;-67
2022/08/24 05:26:29;;;;;;;11.07;5.32;;;;;;;24.35;100.00;99996.03;5031218;28;20208;-67
2022/08/24 05:28:58;;;;;;;10.32;5.15;;;;;;;24.54;100.00;99995.16;5031939;28;20228;-68
2022/08/24 05:31:28;;;;;;;21.42;6.70;;;;;;;24.80;100.00;99999.31;5031560;28;20215;-68
2022/08/24 05:33:55;;;;;;;10.35;6.63;;;;;;;24.91;100.00;99993.56;5031957;28;20215;-69
2022/08/24 05:36:25;;;;;;;10.15;5.38;;;;;;;25.16;100.00;100000.34;5029693;28;20232;-68
2022/08/24 05:38:54;;;;;;;6.60;5.10;;;;;;;25.60;100.00;100008.06;5013122;28;20683;-69
2022/08/24 05:41:25;;;;;;;11.50;5.63;;;;;;;25.90;100.00;100003.91;5031691;28;20192;-69
2022/08/24 05:43:53;;;;;;;7.05;5.10;;;;;;;26.18;100.00;100015.91;5029601;28;20200;-69
2022/08/24 05:46:21;;;;;;;5.78;4.63;;;;;;;26.18;100.00;100010.59;5031382;28;20200;-69
2022/08/24 05:48:48;;;;;;;8.20;4.72;;;;;;;25.97;100.00;100029.25;5030937;28;20228;-68
2022/08/24 05:51:16;;;;;;;8.73;6.07;;;;;;;25.67;100.00;100006.84;5021940;28;20210;-68
2022/08/24 05:53:43;;;;;;;10.25;6.57;;;;;;;25.76;100.00;100022.31;5030675;28;20200;-68
2022/08/24 05:56:12;;;;;;;11.55;8.60;;;;;;;25.96;100.00;100032.88;5031110;28;20212;-68
2022/08/24 05:58:39;;;;;;;11.02;9.00;;;;;;;25.99;100.00;100030.06;5030703;28;20208;-68
2022/08/24 06:01:10;;;;;;;16.88;10.45;;;;;;;25.64;100.00;100004.34;5030573;28;20246;-67
2022/08/24 06:03:37;;;;;;;16.77;9.02;;;;;;;25.53;100.00;100033.19;5030728;28;20208;-68
2022/08/24 06:06:07;;;;;;;11.80;7.43;;;;;;;25.43;100.00;100026.56;5043918;28;20207;-67
2022/08/24 06:08:35;;;;;;;11.65;7.10;;;;;;;25.17;100.00;100020.66;5025879;28;20227;-67
2022/08/24 06:11:02;;;;;;;10.73;7.57;;;;;;;25.17;100.00;100025.09;5023644;28;20207;-67
2022/08/24 06:13:29;;;;;;;10.38;6.53;;;;;;;24.90;100.00;100005.97;5030188;28;20679;-68
2022/08/24 06:16:04;;;;;;;6.95;6.25;;;;;;;25.18;100.00;100025.03;5030198;28;20694;-67
2022/08/24 06:18:33;;;;;;;6.50;5.75;;;;;;;24.96;100.00;100000.41;5021980;28;20204;-67
2022/08/24 06:21:04;;;;;;;9.00;5.90;;;;;;;24.66;100.00;100023.81;5027897;28;20605;-67
2022/08/24 06:23:31;;;;;;;10.30;6.40;;;;;;;24.47;100.00;100006.13;5030254;28;20600;-67
2022/08/24 06:28:42;;;;;;;9.60;6.50;;;;;;;24.65;100.00;100019.44;5031312;28;20744;-67
2022/08/24 06:31:09;;;;;;;8.30;6.32;;;;;;;23.95;100.00;99955.28;5034418;28;20203;-67
2022/08/24 06:33:38;;;;;;;11.15;5.55;;;;;;;24.45;100.00;100007.97;5034499;28;20206;-67
2022/08/24 06:36:05;;;;;;;9.82;6.88;;;;;;;24.77;100.00;100026.00;5034531;28;20204;-67
2022/08/24 06:38:32;;;;;;;9.95;7.97;;;;;;;24.77;100.00;100026.00;5034612;28;20203;-67
2022/08/24 06:40:59;;;;;;;10.93;6.53;;;;;;;24.89;100.00;100036.09;5034318;28;20208;-67
2022/08/24 06:43:26;;;;;;;9.23;5.93;;;;;;;25.13;100.00;100035.00;5015467;28;20212;-67
2022/08/24 06:45:54;;;;;;;10.55;6.85;;;;;;;25.44;100.00;100044.19;5026661;28;20208;-67
2022/08/24 06:48:22;;;;;;;8.63;5.20;;;;;;;25.54;100.00;100048.22;5033745;28;20259;-67
2022/08/24 06:50:51;;;;;;;7.05;5.05;;;;;;;25.30;100.00;100052.81;5034114;28;20208;-68
2022/08/24 06:53:18;;;;;;;9.68;4.78;;;;;;;24.72;100.00;99969.66;5033987;28;20230;-68
2022/08/24 06:55:46;;;;;;;13.52;5.65;;;;;;;25.30;100.00;100042.19;5033907;28;20220;-67
2022/08/24 06:58:13;;;;;;;8.18;5.90;;;;;;;25.09;100.00;100044.03;5015774;28;20292;-67
2022/08/24 07:00:40;;;;;;;8.07;5.18;;;;;;;25.09;100.00;100048.47;5048059;28;20595;-68
2022/08/24 07:03:07;;;;;;;8.70;5.38;;;;;;;25.31;100.00;100045.72;5033948;28;20208;-66
2022/08/24 07:05:34;;;;;;;9.60;5.35;;;;;;;25.36;100.00;100052.53;5033903;28;20215;-67
2022/08/24 07:08:04;;;;;;;7.80;5.35;;;;;;;25.93;100.00;100043.66;5033637;28;20648;-67
2022/08/24 07:10:32;;;;;;;11.85;5.10;;;;;;;26.17;100.00;100061.97;5033770;28;20192;-67
2022/08/24 07:12:58;;;;;;;8.02;4.90;;;;;;;26.33;100.00;100054.97;5033851;28;20196;-67
2022/08/24 07:15:26;;;;;;;5.80;4.47;;;;;;;26.49;100.00;100047.97;5015213;28;20211;-67
2022/08/24 07:17:53;;;;;;;7.10;4.47;;;;;;;26.56;100.00;100057.34;5033545;28;20201;-66
2022/08/24 07:20:20;;;;;;;10.02;4.82;;;;;;;26.70;100.00;100052.19;5033462;28;20203;-67
2022/08/24 07:22:47;;;;;;;7.60;4.82;;;;;;;26.66;100.00;100055.06;5033647;28;20715;-66
2022/08/24 07:25:15;;;;;;;9.35;4.50;;;;;;;26.81;100.00;100059.63;5033500;28;20196;-66
2022/08/24 07:27:42;;;;;;;4.78;4.07;;;;;;;26.48;100.00;100059.53;5033599;28;20188;-67
2022/08/24 07:30:09;;;;;;;12.27;5.38;;;;;;;26.48;100.00;100057.75;5033410;28;20719;-69
2022/08/24 07:32:36;;;;;;;13.80;5.95;;;;;;;26.82;100.00;100056.03;5033283;28;20197;-66
2022/08/24 07:35:03;;;;;;;14.73;7.85;;;;;;;27.22;100.00;100054.81;5033239;28;20200;-66
2022/08/24 07:37:30;;;;;;;14.48;7.15;;;;;;;27.18;100.00;100043.47;5033238;28;20207;-67
2022/08/24 07:39:57;;;;;;;13.35;7.18;;;;;;;27.18;100.00;100053.25;5032970;28;20596;-66
2022/08/24 07:42:25;;;;;;;17.50;6.82;;;;;;;27.51;100.00;100046.97;5032768;28;20204;-67
2022/08/24 07:44:52;;;;;;;12.93;7.25;;;;;;;27.35;100.00;100045.22;5014629;28;20192;-67
2022/08/24 07:47:20;;;;;;;11.95;8.15;;;;;;;27.58;100.00;100045.69;5032914;28;20197;-67
2022/08/24 07:49:47;;;;;;;13.63;7.60;;;;;;;27.22;100.00;100017.53;5014443;28;20228;-67
2022/08/24 07:52:14;;;;;;;8.50;6.15;;;;;;;27.72;100.00;100054.75;5033061;28;20679;-68
2022/08/24 07:54:40;;;;;;;14.40;6.47;;;;;;;27.78;100.00;100060.59;5013272;28;20326;-67
2022/08/24 07:57:07;;;;;;;12.32;5.93;;;;;;;27.97;100.00;100063.91;5033209;28;20672;-67
2022/08/24 07:59:36;;;;;;;6.10;5.10;;;;;;;27.59;100.00;100043.91;5032406;28;20676;-67
2022/08/24 08:02:04;;;;;;;5.40;4.93;;;;;;;27.26;100.00;100057.22;5032845;28;20215;-67
2022/08/24 08:04:31;;;;;;;11.90;6.05;;;;;;;27.79;100.00;100074.78;5019089;28;20612;-67
2022/08/24 08:06:59;;;;;;;18.20;7.78;;;;;;;28.08;100.00;100080.19;5014205;28;20204;-67
2022/08/24 08:09:26;;;;;;;9.52;7.95;;;;;;;28.12;100.00;100085.34;5032449;28;20227;-67
2022/08/24 08:11:53;;;;;;;7.97;6.28;;;;;;;28.23;100.00;100083.81;5032527;28;20659;-67
2022/08/24 08:14:20;;;;;;;11.57;5.78;;;;;;;27.66;100.00;100066.59;5032485;28;20227;-67
2022/08/24 08:16:48;;;;;;;6.60;5.80;;;;;;;27.78;100.00;100071.25;5032696;28;20200;-67
2022/08/24 08:19:15;;;;;;;12.45;7.18;;;;;;;27.70;100.00;100054.81;5032390;28;20241;-67
2022/08/24 08:24:27;;;;;;;8.25;6.50;;;;;;;27.42;100.00;100070.56;5032385;28;20207;-67
2022/08/24 08:26:54;;;;;;;7.57;6.57;;;;;;;27.37;100.00;100069.94;5032266;28;20208;-68
2022/08/24 08:29:23;;;;;;;13.57;8.55;;;;;;;27.38;100.00;100061.03;5046249;28;20219;-67
2022/08/24 08:31:52;;;;;;;10.05;7.68;;;;;;;27.66;100.00;100077.25;5018979;28;20243;-67
2022/08/24 08:34:19;;;;;;;8.65;6.78;;;;;;;27.63;100.00;100058.78;5032291;28;20283;-67
2022/08/24 08:36:47;;;;;;;11.25;6.88;;;;;;;27.62;100.00;100070.38;5032181;28;20250;-67
2022/08/24 08:39:16;;;;;;;8.43;5.70;;;;;;;27.66;100.00;100074.59;5032129;28;20212;-67
2022/08/24 08:42:13;;;;;;;11.13;5.80;;;;;;;27.71;100.00;100082.34;5032143;28;20246;-68
2022/08/24 08:45:02;;;;;;;7.72;5.45;;;;;;;27.80;100.00;100064.00;4970940;28;20701;-67
2022/08/24 08:47:52;;;;;;;8.27;5.40;;;;;;;27.97;100.00;100068.38;4970999;28;20688;-67
2022/08/24 08:50:24;;;;;;;6.65;5.47;;;;;;;27.73;100.00;100054.66;4982484;28;20245;-67
2022/08/24 08:53:17;;;;;;;12.85;5.50;;;;;;;28.06;100.00;100073.22;4969793;28;20217;-68
2022/08/24 08:55:52;;;;;;;7.85;5.13;;;;;;;28.30;100.00;100084.31;4959828;28;20198;-68
2022/08/24 08:58:39;;;;;;;6.35;5.43;;;;;;;28.45;100.00;100076.28;4970687;28;20712;-68
2022/08/24 09:01:17;;;;;;;10.90;5.32;;;;;;;28.11;100.00;100051.66;4970717;28;20237;-68
2022/08/24 09:04:06;;;;;;;7.80;5.30;;;;;;;28.46;100.00;100069.13;4970486;28;20206;-67
2022/08/24 09:06:51;;;;;;;9.68;5.00;;;;;;;28.25;100.00;100078.41;4970130;28;20582;-68
2022/08/24 09:09:41;;;;;;;8.88;4.97;;;;;;;28.20;100.00;100070.66;4958905;28;20236;-68
2022/08/24 09:12:17;;;;;;;10.05;5.43;;;;;;;28.48;100.00;100068.09;4942658;28;20245;-68
2022/08/24 09:15:17;;;;;;;8.02;4.93;;;;;;;29.07;100.00;100069.03;4970550;28;20206;-68
2022/08/24 09:18:05;;;;;;;11.07;5.70;;;;;;;29.40;100.00;100074.97;4893815;29;20224;-68
2022/08/24 09:20:49;;;;;;;5.32;4.65;;;;;;;29.34;100.00;100069.16;4894108;29;20724;-68
2022/08/24 09:23:26;;;;;;;7.55;4.53;;;;;;;28.94;100.00;100066.22;4970796;28;20265;-67
2022/08/24 09:26:02;;;;;;;7.80;5.00;;;;;;;28.83;100.00;100062.47;4970673;28;20202;-68
2022/08/24 09:28:42;;;;;;;6.72;4.53;;;;;;;28.71;100.00;100052.56;4970622;28;20289;-68
2022/08/24 09:31:40;;;;;;;7.85;4.45;;;;;;;28.10;100.00;100060.59;4970932;28;20245;-67
2022/08/24 09:34:17;;;;;;;9.85;4.72;;;;;;;28.41;100.00;100052.53;4970425;28;20210;-67
2022/08/24 09:36:54;;;;;;;5.18;4.68;;;;;;;28.13;100.00;100036.41;4970692;28;20206;-67
2022/08/24 09:39:37;;;;;;;8.27;5.47;;;;;;;28.42;100.00;100051.59;4938299;28;20206;-68
2022/08/24 09:42:44;;;;;;;7.90;5.28;;;;;;;28.35;100.00;100052.91;4970295;28;20237;-67
2022/08/24 09:45:54;;;;;;;9.27;5.38;;;;;;;28.34;100.00;100056.50;4856713;29;20206;-68
2022/08/24 09:49:01;;;;;;;5.55;3.63;;;;;;;28.72;100.00;100055.13;4856735;29;20205;-69
2022/08/24 09:51:56;;;;;;;7.07;4.90;;;;;;;29.09;100.00;100051.09;4820196;29;20232;-68
2022/08/24 09:54:54;;;;;;;5.88;4.50;;;;;;;29.24;100.00;100051.94;4814661;29;20203;-69
2022/08/24 09:57:38;;;;;;;6.25;4.25;;;;;;;29.73;98.27;100045.25;4820197;29;20215;-68
2022/08/24 10:00:12;;;;;;;8.45;4.82;;;;;;;29.66;98.90;100032.38;4789572;29;20264;-69
2022/08/24 10:02:57;;;;;;;4.45;3.72;;;;;;;29.22;98.36;100032.47;4820064;29;20594;-68
2022/08/24 10:05:32;;;;;;;5.30;4.10;;;;;;;29.29;100.00;100034.69;4819913;29;20207;-75
2022/08/24 10:08:09;;;;;;;5.05;4.50;;;;;;;29.56;99.58;100032.09;4820092;29;20219;-70
2022/08/24 10:10:48;;;;;;;6.13;4.45;;;;;;;29.25;100.00;100027.78;4820130;29;20234;-70
2022/08/24 10:13:26;;;;;;;8.45;4.15;;;;;;;29.55;99.10;100030.38;4820037;29;20207;-70
2022/08/24 10:16:16;;;;;;;7.40;4.30;;;;;;;29.03;100.00;100027.44;4789369;29;20203;-69
2022/08/24 10:18:57;;;;;;;7.18;5.32;;;;;;;29.61;100.00;100019.28;4819708;29;20602;-69
2022/08/24 10:21:39;;;;;;;5.60;4.25;;;;;;;29.74;96.13;100030.06;4840617;29;20232;-70
2022/08/24 10:24:34;;;;;;;9.38;5.18;;;;;;;29.47;98.14;100027.34;4893548;29;20201;-70
2022/08/24 10:27:20;;;;;;;6.70;4.80;;;;;;;29.10;100.00;100023.44;4895751;28;20665;-69
2022/08/24 10:30:21;;;;;;;7.07;4.40;;;;;;;28.79;100.00;100023.59;4969941;28;20240;-69
2022/08/24 10:32:59;;;;;;;17.13;5.82;;;;;;;29.01;100.00;100022.19;5027342;28;20191;-70
2022/08/24 10:35:32;;;;;;;12.60;6.22;;;;;;;29.08;100.00;100008.44;5030989;28;20200;-69
2022/08/24 10:41:50;;;;;;;10.27;6.22;;;;;;;28.66;100.00;100012.75;5030712;28;20354;-69
2022/08/24 10:44:39;;;;;;;10.68;4.60;;;;;;;28.45;100.00;100011.38;5030690;28;20200;-69
2022/08/24 10:47:12;;;;;;;13.82;5.03;;;;;;;28.69;100.00;99988.59;5030674;28;20203;-69
2022/08/24 10:50:16;;;;;;;14.75;4.40;;;;;;;29.01;100.00;100002.63;5030669;28;20242;-69
2022/08/24 10:53:22;;;;;;;7.03;4.15;;;;;;;28.87;100.00;99994.59;5013375;28;20873;-69
2022/08/24 10:56:04;;;;;;;7.82;4.15;;;;;;;28.81;100.00;99995.84;5030597;28;20200;-69
2022/08/24 10:58:45;;;;;;;10.63;4.43;;;;;;;28.62;99.28;99949.00;5030657;28;20647;-69
2022/08/24 11:01:20;;;;;;;11.77;3.72;;;;;;;29.12;97.73;99999.28;5030719;28;20213;-69
2022/08/24 11:03:54;;;;;;;9.43;4.78;;;;;;;29.14;96.55;99984.91;5031047;28;20655;-69
2022/08/24 11:06:24;;;;;;;11.43;4.45;;;;;;;28.97;100.00;99998.41;5030841;28;20204;-69
2022/08/24 11:08:54;;;;;;;10.10;4.78;;;;;;;29.27;100.00;99993.88;5030515;28;20200;-69
2022/08/24 11:11:28;;;;;;;12.02;4.70;;;;;;;29.16;100.00;99995.47;5030441;28;20232;-69
2022/08/24 11:13:59;;;;;;;11.18;4.72;;;;;;;29.38;100.00;99985.19;5012486;28;20651;-69
2022/08/24 11:16:31;;;;;;;7.80;4.15;;;;;;;29.12;99.70;99986.78;5014132;28;20204;-69
2022/08/24 11:19:00;;;;;;;11.02;4.38;;;;;;;28.82;99.44;99973.56;5034268;28;20204;-69
2022/08/24 11:21:40;;;;;;;19.65;5.35;;;;;;;28.86;100.00;99982.22;5033682;28;20243;-69
2022/08/24 11:24:13;;;;;;;16.40;5.00;;;;;;;29.05;100.00;99988.13;5034360;28;20200;-69
2022/08/24 11:26:50;;;;;;;9.60;4.95;;;;;;;29.07;100.00;99985.38;5034044;28;20707;-69
2022/08/24 11:29:17;;;;;;;10.13;5.35;;;;;;;29.31;99.50;99975.84;5034152;28;20240;-69
2022/08/24 11:31:50;;;;;;;7.18;3.95;;;;;;;29.20;100.00;99970.28;5034148;28;20203;-69
2022/08/24 11:34:20;;;;;;;14.68;4.78;;;;;;;29.39;98.92;99952.16;5034226;28;20204;-69
2022/08/24 11:36:47;;;;;;;15.68;5.00;;;;;;;29.37;95.78;99941.56;5033886;28;20203;-69
2022/08/24 11:39:21;;;;;;;9.98;4.85;;;;;;;29.59;97.59;99946.38;5033883;28;20203;-69
2022/08/24 11:41:59;;;;;;;16.60;5.18;;;;;;;29.91;91.02;99963.88;5034070;28;20208;-69
2022/08/24 11:44:38;;;;;;;13.10;4.50;;;;;;;30.35;90.22;99952.00;5033903;28;20671;-69
2022/08/24 11:47:26;;;;;;;11.13;4.80;;;;;;;30.42;87.54;99969.38;5033487;28;20601;-69
2022/08/24 11:50:00;;;;;;;13.35;4.95;;;;;;;30.16;87.72;99964.88;5033458;28;20672;-68